Time;durP1;ratioP1;P1;durP2;ratioP2;P2;SDS_P1;SDS_P2;PMS_P1;PMS_P2;Temp;Humidity;BMP_temperature;BMP_pressure;BME280_temperature;BME280_humidity;BME280_pressure;Samples;Min_cycle;Max_cycle;Signal;HPM_P1;HPM_P2
2023/06/26 00:01:29;;;;;;;7.28;6.68;;;;;;;23.09;62.81;101162.19;4998990;28;20049;-51
2023/06/26 00:03:55;;;;;;;8.20;6.82;;;;;;;23.03;64.06;101152.94;5000762;28;20030;-55
2023/06/26 00:06:20;;;;;;;10.02;6.90;;;;;;;22.98;63.07;101151.81;4999696;28;20044;-55
2023/06/26 00:08:46;;;;;;;9.02;6.85;;;;;;;22.99;63.70;101150.78;5000287;28;20388;-53
2023/06/26 00:11:11;;;;;;;8.18;7.00;;;;;;;22.96;63.11;101149.28;4999557;28;20058;-51
2023/06/26 00:13:36;;;;;;;8.23;7.03;;;;;;;22.90;64.12;101150.09;5002239;28;20113;-53
2023/06/26 00:16:03;;;;;;;7.40;6.68;;;;;;;22.91;63.42;101147.19;5004046;28;20029;-54
2023/06/26 00:18:28;;;;;;;8.60;6.75;;;;;;;22.87;63.57;101147.75;5001925;28;20027;-53
2023/06/26 00:20:54;;;;;;;9.48;6.90;;;;;;;22.86;63.54;101144.19;5001338;28;20380;-53
2023/06/26 00:23:19;;;;;;;7.80;6.60;;;;;;;22.81;63.87;101146.63;5003740;28;20034;-50
2023/06/26 00:25:44;;;;;;;9.18;6.88;;;;;;;22.77;64.54;101153.47;5002855;28;20387;-52
2023/06/26 00:28:10;;;;;;;8.60;6.50;;;;;;;22.76;63.94;101145.53;5000086;28;20046;-55
2023/06/26 00:30:35;;;;;;;7.05;6.35;;;;;;;22.74;64.49;101151.13;5002666;28;20037;-51
2023/06/26 00:33:01;;;;;;;7.57;6.80;;;;;;;22.67;64.71;101145.66;5005206;28;20042;-52
2023/06/26 00:35:26;;;;;;;7.00;6.30;;;;;;;22.68;64.61;101146.47;5004276;28;20041;-53
2023/06/26 00:37:52;;;;;;;8.15;6.65;;;;;;;22.60;64.97;101144.75;5004897;28;20049;-54
2023/06/26 00:40:17;;;;;;;9.13;6.70;;;;;;;22.61;65.19;101142.88;4997842;28;20034;-52
2023/06/26 00:42:43;;;;;;;8.18;7.10;;;;;;;22.50;66.20;101142.31;5004578;28;20037;-56
2023/06/26 00:45:08;;;;;;;8.00;7.18;;;;;;;22.49;66.03;101146.03;5000878;28;20054;-53
2023/06/26 00:47:33;;;;;;;7.95;7.20;;;;;;;22.46;66.44;101156.41;4999505;28;20033;-54
2023/06/26 00:49:59;;;;;;;8.18;7.38;;;;;;;22.44;66.00;101155.78;4997446;28;20442;-52
2023/06/26 00:52:25;;;;;;;10.07;7.47;;;;;;;22.38;66.85;101151.94;4996834;28;20120;-54
2023/06/26 00:54:51;;;;;;;7.97;7.18;;;;;;;22.34;66.88;101153.34;4998826;28;20022;-54
2023/06/26 00:57:17;;;;;;;11.73;7.85;;;;;;;22.29;66.80;101158.50;4995425;28;20539;-56
2023/06/26 00:59:42;;;;;;;9.05;7.20;;;;;;;22.22;67.82;101157.53;4998717;28;20026;-53
2023/06/26 01:02:07;;;;;;;10.35;7.32;;;;;;;22.18;67.43;101162.44;4999959;28;20050;-51
2023/06/26 01:04:34;;;;;;;7.55;6.82;;;;;;;22.14;67.55;101158.47;4999404;28;20025;-54
2023/06/26 01:07:01;;;;;;;9.93;7.80;;;;;;;22.06;67.51;101159.38;5000208;28;20076;-53
2023/06/26 01:09:27;;;;;;;10.57;7.32;;;;;;;22.03;67.71;101167.03;4998300;28;20084;-51
2023/06/26 01:11:52;;;;;;;8.05;6.80;;;;;;;22.04;66.69;101166.84;5000421;28;20034;-53
2023/06/26 01:14:18;;;;;;;8.00;7.13;;;;;;;21.98;67.90;101173.84;4998781;28;20049;-52
2023/06/26 01:16:47;;;;;;;7.60;6.90;;;;;;;21.97;67.29;101168.63;4997123;28;20468;-52
2023/06/26 01:19:19;;;;;;;;;;;;;;;22.07;65.19;101171.88;5001697;28;20041;-54
2023/06/26 01:21:47;;;;;;;7.55;6.70;;;;;;;21.87;66.89;101162.63;5003000;28;20245;-52
2023/06/26 01:24:21;;;;;;;7.47;6.78;;;;;;;21.84;66.64;101168.41;5001073;28;20030;-54
2023/06/26 01:26:49;;;;;;;7.15;6.35;;;;;;;21.83;66.80;101178.38;4993453;28;20031;-53
2023/06/26 01:29:18;;;;;;;8.25;6.75;;;;;;;21.85;67.38;101183.59;4999986;28;20061;-55
2023/06/26 01:31:46;;;;;;;13.93;6.55;;;;;;;21.80;67.24;101186.88;4998837;28;20022;-54
2023/06/26 01:34:12;;;;;;;9.77;6.30;;;;;;;21.76;66.77;101185.53;5001930;28;20046;-52
2023/06/26 01:36:37;;;;;;;7.88;6.28;;;;;;;21.74;66.39;101177.59;4997060;28;20423;-54
2023/06/26 01:39:03;;;;;;;10.15;6.40;;;;;;;21.68;67.75;101188.31;5002583;28;20493;-53
2023/06/26 01:41:28;;;;;;;7.50;6.50;;;;;;;21.66;66.87;101176.84;4997499;28;20039;-54
2023/06/26 01:44:05;;;;;;;7.72;6.03;;;;;;;21.61;67.05;101185.50;4999398;28;20300;-53
2023/06/26 01:46:50;;;;;;;6.13;5.55;;;;;;;21.58;66.21;101188.56;4997433;28;20031;-54
2023/06/26 01:49:31;;;;;;;8.98;5.53;;;;;;;21.51;66.83;101193.84;4996217;28;20480;-54
2023/06/26 01:52:21;;;;;;;8.82;5.45;;;;;;;21.53;66.21;101199.94;4995014;28;20026;-54
2023/06/26 01:55:10;;;;;;;8.77;5.45;;;;;;;21.47;66.64;101205.16;4997595;28;20026;-52
2023/06/26 01:57:36;;;;;;;5.50;5.00;;;;;;;21.41;67.16;101204.03;4993382;28;20077;-54
2023/06/26 02:00:03;;;;;;;9.50;5.32;;;;;;;21.36;67.42;101215.38;4998740;28;20513;-55
2023/06/26 02:02:31;;;;;;;8.05;5.10;;;;;;;21.31;66.71;101211.53;4998889;28;20060;-52
2023/06/26 02:04:56;;;;;;;7.20;5.30;;;;;;;21.29;67.33;101213.59;5000300;28;20030;-55
2023/06/26 02:07:21;;;;;;;6.82;5.50;;;;;;;21.25;66.92;101213.13;4996535;28;20457;-52
2023/06/26 02:09:47;;;;;;;8.75;5.10;;;;;;;21.21;67.06;101218.00;5000412;28;20022;-55
2023/06/26 02:12:12;;;;;;;12.43;5.28;;;;;;;21.20;67.22;101212.78;4993557;28;20117;-55
2023/06/26 02:14:38;;;;;;;9.82;5.30;;;;;;;21.15;67.15;101216.03;4998903;28;20395;-53
2023/06/26 02:17:04;;;;;;;7.85;5.30;;;;;;;21.11;67.19;101212.00;5002290;28;20096;-52
2023/06/26 02:19:29;;;;;;;7.20;5.07;;;;;;;21.09;68.11;101213.22;4998362;28;20037;-52
2023/06/26 02:21:55;;;;;;;9.05;4.78;;;;;;;21.07;67.85;101213.38;4998002;28;20387;-50
2023/06/26 02:24:20;;;;;;;6.32;5.40;;;;;;;21.01;68.25;101211.38;4996289;28;20096;-50
2023/06/26 02:26:45;;;;;;;7.72;5.38;;;;;;;20.96;67.90;101211.91;4997699;28;20049;-51
2023/06/26 02:29:12;;;;;;;7.30;4.78;;;;;;;20.95;67.25;101221.06;5000710;28;20048;-52
2023/06/26 02:31:37;;;;;;;7.35;4.97;;;;;;;20.87;67.57;101221.94;4996401;28;20030;-51
2023/06/26 02:34:03;;;;;;;9.88;5.10;;;;;;;20.81;67.98;101227.19;5000239;28;20446;-55
2023/06/26 02:36:28;;;;;;;7.95;4.80;;;;;;;20.77;66.92;101223.16;4997442;28;20034;-53
2023/06/26 02:38:53;;;;;;;7.10;4.45;;;;;;;20.70;68.06;101225.72;4994306;28;20070;-53
2023/06/26 02:41:19;;;;;;;6.50;4.95;;;;;;;20.69;67.29;101224.88;5002513;28;20030;-51
2023/06/26 02:43:44;;;;;;;7.30;4.82;;;;;;;20.64;67.35;101234.50;4998167;28;20125;-51
2023/06/26 02:46:09;;;;;;;6.32;4.55;;;;;;;20.64;67.63;101229.13;4985590;28;20053;-52
2023/06/26 02:48:35;;;;;;;9.25;4.80;;;;;;;20.59;67.88;101223.38;4999087;28;20023;-52
2023/06/26 02:51:00;;;;;;;6.50;4.38;;;;;;;20.53;67.41;101246.47;4999760;28;20094;-50
2023/06/26 02:53:25;;;;;;;7.13;4.53;;;;;;;20.50;67.10;101244.97;5003549;28;20025;-51
2023/06/26 02:55:50;;;;;;;8.65;4.80;;;;;;;20.47;68.10;101247.19;4990841;28;20288;-51
2023/06/26 02:58:16;;;;;;;9.90;4.70;;;;;;;20.46;67.87;101251.72;5000472;28;20399;-52
2023/06/26 03:00:43;;;;;;;7.10;4.18;;;;;;;20.46;68.51;101254.41;4997403;28;20034;-52
2023/06/26 03:03:09;;;;;;;7.03;4.65;;;;;;;20.40;68.76;101252.44;4999754;28;20543;-51
2023/06/26 03:05:34;;;;;;;7.53;4.70;;;;;;;20.36;68.84;101256.47;4996623;28;20153;-53
2023/06/26 03:07:59;;;;;;;9.18;4.50;;;;;;;20.34;69.88;101255.81;4997809;28;20034;-51
2023/06/26 03:10:24;;;;;;;11.30;5.00;;;;;;;20.30;69.50;101257.16;4999341;28;20498;-53
2023/06/26 03:12:50;;;;;;;7.35;4.32;;;;;;;20.24;70.91;101255.16;4998755;28;20288;-51
2023/06/26 03:15:15;;;;;;;9.10;4.75;;;;;;;20.20;71.69;101267.28;4997624;28;20140;-52
2023/06/26 03:17:40;;;;;;;10.82;4.40;;;;;;;20.17;71.65;101265.78;4998092;28;20424;-55
2023/06/26 03:20:07;;;;;;;9.80;4.78;;;;;;;20.13;71.96;101261.72;5002818;28;20037;-52
2023/06/26 03:22:33;;;;;;;9.27;4.32;;;;;;;20.13;72.58;101264.44;4999690;28;20033;-54
2023/06/26 03:24:59;;;;;;;11.20;4.72;;;;;;;20.11;73.67;101261.06;4999737;28;20052;-55
2023/06/26 03:27:24;;;;;;;8.65;4.35;;;;;;;20.10;73.05;101262.94;4995379;28;20023;-51
2023/06/26 03:29:49;;;;;;;10.20;4.97;;;;;;;20.06;73.65;101269.66;5000251;28;20042;-51
2023/06/26 03:32:15;;;;;;;10.30;4.88;;;;;;;20.04;73.75;101266.31;4997208;28;20030;-54
2023/06/26 03:34:40;;;;;;;8.23;4.95;;;;;;;20.02;74.01;101262.94;5002547;28;20763;-52
2023/06/26 03:37:05;;;;;;;11.07;4.97;;;;;;;20.02;73.99;101254.84;4998926;28;20219;-53
2023/06/26 03:39:31;;;;;;;8.85;5.03;;;;;;;19.98;74.88;101268.84;4984337;28;20022;-54
2023/06/26 03:42:00;;;;;;;10.02;4.93;;;;;;;19.92;75.73;101265.81;5000083;28;20092;-51
2023/06/26 03:44:25;;;;;;;9.10;4.68;;;;;;;19.91;75.36;101258.72;5002139;28;20109;-54
2023/06/26 03:46:51;;;;;;;10.00;4.93;;;;;;;19.90;75.47;101262.44;5000660;28;20105;-53
2023/06/26 03:49:17;;;;;;;13.30;5.28;;;;;;;19.88;75.84;101260.91;5001936;28;20034;-55
2023/06/26 03:51:42;;;;;;;9.80;5.00;;;;;;;19.90;76.54;101269.66;4998970;28;20093;-53
2023/06/26 03:54:07;;;;;;;10.48;4.80;;;;;;;19.87;76.41;101280.81;5003109;28;20098;-52
2023/06/26 03:56:33;;;;;;;13.50;5.03;;;;;;;19.83;77.63;101277.59;4999622;28;20029;-54
2023/06/26 03:58:58;;;;;;;9.70;5.07;;;;;;;19.86;77.28;101274.56;5002730;28;20336;-53
2023/06/26 04:01:23;;;;;;;14.52;5.05;;;;;;;19.88;77.92;101282.47;4999865;28;20023;-53
2023/06/26 04:03:48;;;;;;;11.93;4.90;;;;;;;19.87;77.97;101283.50;5002965;28;20030;-52
2023/06/26 04:06:14;;;;;;;11.55;5.55;;;;;;;19.85;78.75;101283.66;4999001;28;20309;-52
2023/06/26 04:08:39;;;;;;;11.85;5.43;;;;;;;19.86;78.84;101295.28;5003169;28;20030;-51
2023/06/26 04:11:04;;;;;;;10.98;5.13;;;;;;;19.88;78.86;101298.66;5000015;28;20036;-53
2023/06/26 04:13:30;;;;;;;12.68;6.03;;;;;;;19.86;80.20;101297.97;5005169;28;20495;-53
2023/06/26 04:15:55;;;;;;;9.80;5.38;;;;;;;19.85;79.46;101305.22;4998677;28;20030;-51
2023/06/26 04:18:20;;;;;;;17.02;6.22;;;;;;;19.82;79.80;101305.56;5002721;28;20041;-52
2023/06/26 04:21:06;;;;;;;12.63;5.68;;;;;;;19.85;78.96;101312.47;4999024;28;20032;-52
2023/06/26 04:23:31;;;;;;;13.13;5.80;;;;;;;19.82;81.25;101304.69;5000589;28;20022;-54
2023/06/26 04:25:58;;;;;;;13.93;6.00;;;;;;;19.83;80.93;101317.19;4999005;28;20089;-54
2023/06/26 04:28:23;;;;;;;13.05;5.45;;;;;;;19.87;81.62;101310.47;5000646;28;20035;-52
2023/06/26 04:30:49;;;;;;;15.07;5.82;;;;;;;19.88;82.22;101310.25;5000144;28;20438;-55
2023/06/26 04:33:15;;;;;;;14.40;5.97;;;;;;;19.91;82.49;101318.03;5001641;28;20070;-54
2023/06/26 04:35:40;;;;;;;14.60;5.78;;;;;;;19.93;83.09;101307.94;5000267;28;20384;-53
2023/06/26 04:38:05;;;;;;;13.88;5.95;;;;;;;19.98;82.74;101325.44;4999849;28;20451;-52
2023/06/26 04:40:31;;;;;;;14.27;5.68;;;;;;;20.02;83.04;101314.16;5001666;28;20033;-51
2023/06/26 04:42:56;;;;;;;16.40;5.95;;;;;;;20.07;83.06;101324.47;4997550;28;20384;-53
2023/06/26 04:45:21;;;;;;;16.92;6.20;;;;;;;20.07;83.53;101325.28;4998556;28;20497;-51
2023/06/26 04:47:47;;;;;;;14.82;5.97;;;;;;;20.07;83.19;101332.56;5005695;28;20054;-52
2023/06/26 04:50:12;;;;;;;14.48;5.55;;;;;;;20.09;83.52;101336.75;4998494;28;20022;-52
2023/06/26 04:52:37;;;;;;;16.15;6.07;;;;;;;20.10;83.04;101335.75;5000441;28;20121;-52
2023/06/26 04:55:03;;;;;;;16.17;6.05;;;;;;;20.12;83.07;101332.88;5000503;28;20414;-54
2023/06/26 04:57:28;;;;;;;18.65;5.68;;;;;;;20.12;83.29;101340.97;5002787;28;20069;-52
2023/06/26 04:59:54;;;;;;;18.23;5.80;;;;;;;20.14;82.71;101337.09;4999162;28;20161;-52
2023/06/26 05:02:19;;;;;;;16.07;6.53;;;;;;;20.23;82.64;101337.09;5001211;28;20296;-55
2023/06/26 05:04:46;;;;;;;15.88;5.13;;;;;;;20.31;82.55;101342.47;4997976;28;20277;-53
2023/06/26 05:07:11;;;;;;;16.42;6.25;;;;;;;20.33;82.89;101337.75;5001587;28;20030;-54
2023/06/26 05:09:36;;;;;;;14.32;5.18;;;;;;;20.48;81.72;101354.94;4995626;28;20034;-53
2023/06/26 05:12:02;;;;;;;19.73;5.78;;;;;;;20.50;81.51;101349.34;5002190;28;20131;-54
2023/06/26 05:14:28;;;;;;;18.10;6.45;;;;;;;20.56;81.38;101355.94;4999561;28;20042;-52
2023/06/26 05:16:53;;;;;;;17.67;5.95;;;;;;;20.63;80.47;101359.66;4999637;28;20368;-54
2023/06/26 05:19:18;;;;;;;15.38;5.20;;;;;;;20.64;80.19;101364.91;4997350;28;20165;-53
2023/06/26 05:21:44;;;;;;;16.45;5.55;;;;;;;20.64;79.83;101364.91;5001113;28;20033;-55
2023/06/26 05:24:12;;;;;;;20.27;5.50;;;;;;;20.66;79.70;101365.56;5001682;28;20069;-53
2023/06/26 05:26:38;;;;;;;13.55;5.30;;;;;;;20.69;79.64;101373.31;5003858;28;20479;-55
2023/06/26 05:29:04;;;;;;;17.63;5.13;;;;;;;20.76;79.05;101380.75;4998694;28;20068;-55
2023/06/26 05:31:33;;;;;;;18.77;5.78;;;;;;;20.82;78.47;101380.06;5004766;28;20391;-52
2023/06/26 05:34:00;;;;;;;;;;;;;;;20.96;76.90;101375.81;5004410;28;20046;-53
2023/06/26 05:36:26;;;;;;;16.92;4.85;;;;;;;20.94;77.51;101381.38;5003065;28;19913;-54
2023/06/26 05:38:52;;;;;;;13.57;4.88;;;;;;;20.99;77.11;101383.56;4996012;28;20022;-52
2023/06/26 05:41:17;;;;;;;13.95;4.90;;;;;;;21.04;75.80;101387.41;5000762;28;20080;-52
2023/06/26 05:43:43;;;;;;;13.95;5.10;;;;;;;21.13;75.56;101379.28;4998343;28;20022;-50
2023/06/26 05:46:08;;;;;;;19.40;5.07;;;;;;;21.26;75.39;101393.91;4998899;28;20479;-51
2023/06/26 05:48:33;;;;;;;14.38;4.82;;;;;;;21.42;75.28;101394.91;5002875;28;20273;-54
2023/06/26 05:50:59;;;;;;;17.02;4.72;;;;;;;21.60;74.13;101400.09;5000402;28;20030;-54
2023/06/26 05:53:24;;;;;;;15.93;4.93;;;;;;;21.76;71.81;101397.25;5000480;28;20034;-53
2023/06/26 05:55:50;;;;;;;13.20;4.47;;;;;;;21.88;71.55;101403.09;4999195;28;20177;-53
2023/06/26 05:58:17;;;;;;;11.80;4.15;;;;;;;21.99;71.79;101410.00;4997058;28;20042;-55
2023/06/26 06:00:43;;;;;;;11.02;4.10;;;;;;;22.15;69.95;101403.63;5000270;28;20026;-52
2023/06/26 06:03:10;;;;;;;10.77;4.18;;;;;;;22.20;69.76;101420.16;4997921;28;20033;-55
2023/06/26 06:05:35;;;;;;;15.40;4.47;;;;;;;22.21;68.40;101423.69;5000173;28;20387;-55
2023/06/26 06:08:01;;;;;;;18.67;4.60;;;;;;;22.31;67.85;101422.47;4991966;28;20030;-52
2023/06/26 06:10:26;;;;;;;15.43;4.28;;;;;;;22.49;67.26;101429.44;4994333;28;20037;-53
2023/06/26 06:12:52;;;;;;;12.77;4.10;;;;;;;22.62;66.52;101416.13;4979440;28;20030;-51
2023/06/26 06:15:17;;;;;;;11.23;3.75;;;;;;;22.72;65.98;101419.41;4995724;28;20113;-51
2023/06/26 06:17:43;;;;;;;19.98;3.53;;;;;;;22.90;65.83;101420.94;4997055;28;20392;-51
2023/06/26 06:20:09;;;;;;;11.32;3.50;;;;;;;23.12;65.91;101434.63;5002026;28;20085;-52
2023/06/26 06:22:34;;;;;;;13.65;4.32;;;;;;;23.27;63.64;101440.88;4999650;28;20326;-55
2023/06/26 06:25:00;;;;;;;13.07;3.45;;;;;;;23.38;62.06;101442.28;4995616;28;20034;-53
2023/06/26 06:27:27;;;;;;;9.07;3.30;;;;;;;23.44;61.65;101439.66;4997492;28;20038;-51
2023/06/26 06:29:52;;;;;;;8.88;3.60;;;;;;;23.56;61.82;101436.47;4992668;28;20030;-52
2023/06/26 06:32:17;;;;;;;12.25;3.75;;;;;;;23.80;61.93;101435.31;4997272;28;20065;-52
2023/06/26 06:34:43;;;;;;;10.23;3.70;;;;;;;23.83;61.10;101430.38;4999327;28;20452;-51
2023/06/26 06:37:08;;;;;;;12.02;3.58;;;;;;;24.01;59.91;101440.81;4996183;28;20088;-51
2023/06/26 06:39:33;;;;;;;9.98;3.38;;;;;;;24.10;59.31;101449.66;4997586;28;20451;-51
2023/06/26 06:42:00;;;;;;;9.02;2.80;;;;;;;24.35;58.51;101458.28;4999103;28;20034;-53
2023/06/26 06:44:25;;;;;;;11.23;3.22;;;;;;;24.45;57.56;101457.09;5001357;28;20122;-51
2023/06/26 06:46:50;;;;;;;9.07;3.20;;;;;;;24.47;57.77;101469.44;5000615;28;20133;-51
2023/06/26 06:49:16;;;;;;;11.57;3.30;;;;;;;24.59;58.55;101466.25;5003571;28;20285;-52
2023/06/26 06:51:41;;;;;;;9.88;3.08;;;;;;;24.85;56.37;101466.47;4996762;28;20113;-51
2023/06/26 06:54:06;;;;;;;11.40;3.67;;;;;;;24.94;56.22;101467.16;4998028;28;20387;-52
2023/06/26 06:56:31;;;;;;;8.95;3.13;;;;;;;25.07;55.72;101469.97;4998729;28;20036;-53
2023/06/26 06:58:57;;;;;;;8.93;3.20;;;;;;;24.98;55.49;101478.47;4998153;28;20038;-51
2023/06/26 07:01:22;;;;;;;6.30;2.90;;;;;;;25.10;55.17;101487.78;4992569;28;20084;-51
2023/06/26 07:03:47;;;;;;;9.40;2.95;;;;;;;25.23;54.80;101496.00;4999206;28;20116;-51
2023/06/26 07:06:13;;;;;;;10.55;3.20;;;;;;;25.33;53.82;101492.97;5000999;28;20030;-51
2023/06/26 07:08:38;;;;;;;11.75;2.95;;;;;;;25.49;54.13;101497.25;5004189;28;20423;-51
2023/06/26 07:11:04;;;;;;;7.70;2.40;;;;;;;25.82;55.03;101510.19;5000366;28;20434;-53
2023/06/26 07:13:29;;;;;;;6.63;2.83;;;;;;;25.67;53.95;101494.00;5001565;28;20492;-51
2023/06/26 07:15:54;;;;;;;9.70;2.53;;;;;;;25.55;52.40;101499.16;5002357;28;20030;-51
2023/06/26 07:18:20;;;;;;;7.43;2.80;;;;;;;25.36;54.42;101500.72;4999317;28;20033;-51
2023/06/26 07:20:45;;;;;;;8.13;2.95;;;;;;;25.23;53.99;101508.75;5000922;28;20876;-52
2023/06/26 07:23:10;;;;;;;8.43;2.63;;;;;;;25.15;54.46;101517.06;5005866;28;20065;-53
2023/06/26 07:25:36;;;;;;;7.13;2.35;;;;;;;25.08;54.84;101514.28;4994907;28;20046;-51
2023/06/26 07:28:01;;;;;;;8.77;2.72;;;;;;;24.88;54.70;101517.69;5003526;28;20019;-55
2023/06/26 07:30:27;;;;;;;9.75;2.60;;;;;;;24.84;55.15;101521.00;5002218;28;20144;-51
2023/06/26 07:32:52;;;;;;;8.23;3.13;;;;;;;25.04;55.04;101522.00;5003829;28;20077;-53
2023/06/26 07:35:17;;;;;;;7.85;2.70;;;;;;;25.06;54.61;101538.97;4995862;28;20292;-51
2023/06/26 07:37:43;;;;;;;7.97;2.70;;;;;;;25.04;54.70;101537.47;5003570;28;20026;-51
2023/06/26 07:40:09;;;;;;;5.50;2.53;;;;;;;25.27;53.63;101538.09;5000029;28;20034;-51
2023/06/26 07:42:35;;;;;;;7.35;2.50;;;;;;;25.27;53.27;101537.28;4997743;28;20385;-53
2023/06/26 07:45:00;;;;;;;10.63;2.50;;;;;;;25.52;54.32;101548.53;5001897;28;20030;-52
2023/06/26 07:47:26;;;;;;;4.55;2.33;;;;;;;25.59;52.11;101534.97;5003896;28;20034;-53
2023/06/26 07:49:51;;;;;;;6.32;2.05;;;;;;;25.76;51.21;101540.91;5000987;28;20034;-53
2023/06/26 07:52:18;;;;;;;5.78;2.28;;;;;;;25.66;50.19;101542.13;5004024;28;20030;-52
2023/06/26 07:54:43;;;;;;;5.10;2.20;;;;;;;25.85;51.60;101556.88;5000512;28;20018;-53
2023/06/26 07:57:11;;;;;;;9.73;2.27;;;;;;;26.07;50.36;101553.22;5004645;28;20092;-51
2023/06/26 07:59:36;;;;;;;3.92;1.83;;;;;;;26.09;48.87;101557.41;5003972;28;20304;-52
2023/06/26 08:02:02;;;;;;;9.18;2.20;;;;;;;26.27;48.31;101564.19;4998967;28;20081;-52
2023/06/26 08:04:31;;;;;;;5.35;1.67;;;;;;;26.26;47.48;101570.69;4999397;28;20029;-53
2023/06/26 08:06:58;;;;;;;3.67;1.92;;;;;;;26.16;47.65;101558.31;5002448;28;20030;-53
2023/06/26 08:09:25;;;;;;;5.70;1.70;;;;;;;25.98;45.44;101564.28;5014609;28;20157;-52
2023/06/26 08:11:51;;;;;;;4.25;1.90;;;;;;;25.79;45.19;101574.00;5000262;28;20025;-54
2023/06/26 08:14:17;;;;;;;4.97;1.48;;;;;;;25.60;44.91;101575.56;4998900;28;20041;-52
2023/06/26 08:16:43;;;;;;;5.80;1.65;;;;;;;25.66;45.49;101585.66;5000846;28;20022;-53
2023/06/26 08:19:10;;;;;;;7.63;1.75;;;;;;;25.70;45.01;101577.06;4997663;28;20506;-55
2023/06/26 08:21:35;;;;;;;2.97;1.48;;;;;;;25.86;45.77;101571.31;5001949;28;20529;-54
2023/06/26 08:24:01;;;;;;;6.15;1.70;;;;;;;26.11;44.93;101571.66;4998703;28;20022;-52
2023/06/26 08:26:26;;;;;;;3.80;1.35;;;;;;;26.37;42.89;101576.38;5002461;28;20033;-52
2023/06/26 08:28:51;;;;;;;4.80;1.50;;;;;;;26.59;43.62;101578.94;4997619;28;20022;-52
2023/06/26 08:31:17;;;;;;;5.25;1.42;;;;;;;26.97;43.57;101575.69;5002248;28;20036;-52
2023/06/26 08:33:43;;;;;;;5.88;1.48;;;;;;;27.13;43.55;101580.72;4998575;28;20053;-52
2023/06/26 08:36:08;;;;;;;6.53;1.67;;;;;;;27.48;41.82;101571.50;5000964;28;20475;-52
2023/06/26 08:38:33;;;;;;;2.40;1.48;;;;;;;27.66;42.98;101573.53;4998949;28;20110;-51
2023/06/26 08:40:59;;;;;;;6.22;1.63;;;;;;;27.76;41.35;101576.69;5001688;28;20026;-53
2023/06/26 08:43:26;;;;;;;3.83;1.20;;;;;;;27.99;42.19;101572.63;4965698;28;20108;-52
2023/06/26 08:45:52;;;;;;;4.57;1.40;;;;;;;27.82;40.71;101573.06;4996982;28;20369;-52
2023/06/26 08:48:18;;;;;;;5.45;1.50;;;;;;;27.88;40.60;101590.50;4993275;28;20053;-53
2023/06/26 08:50:44;;;;;;;5.25;1.80;;;;;;;27.85;40.82;101582.75;5000440;28;20116;-54
2023/06/26 08:53:52;;;;;;;4.68;1.48;;;;;;;27.87;41.92;101597.00;4998859;28;20540;-52
2023/06/26 08:56:21;;;;;;;2.17;1.40;;;;;;;28.03;39.36;101601.19;4998846;28;20038;-51
2023/06/26 08:58:46;;;;;;;5.90;1.42;;;;;;;28.08;40.05;101601.38;5002994;28;20030;-52
2023/06/26 09:01:12;;;;;;;10.52;1.50;;;;;;;28.21;39.06;101603.19;5003533;28;20026;-52
2023/06/26 09:03:38;;;;;;;3.72;1.30;;;;;;;28.40;37.33;101598.72;4998847;28;20030;-53
2023/06/26 09:06:03;;;;;;;3.30;1.25;;;;;;;28.68;37.18;101609.31;4999374;28;20029;-52
2023/06/26 09:08:28;;;;;;;7.35;1.50;;;;;;;28.75;37.10;101610.09;4999773;28;20121;-54
2023/06/26 09:10:54;;;;;;;3.10;1.20;;;;;;;28.99;36.33;101602.16;4999163;28;20032;-52
2023/06/26 09:13:19;;;;;;;1.80;1.10;;;;;;;29.27;36.19;101609.94;4999122;28;20073;-53
2023/06/26 09:15:46;;;;;;;5.63;1.35;;;;;;;29.59;36.25;101598.91;4997953;28;20050;-52
2023/06/26 09:18:12;;;;;;;9.20;1.65;;;;;;;29.50;36.30;101608.50;4999413;28;20046;-53
2023/06/26 09:20:37;;;;;;;3.30;1.40;;;;;;;29.57;37.43;101616.63;4999771;28;20034;-52
2023/06/26 09:23:04;;;;;;;3.83;1.40;;;;;;;29.59;35.20;101614.50;5001163;28;20105;-52
2023/06/26 09:25:29;;;;;;;3.45;1.30;;;;;;;29.70;34.47;101606.38;5002601;28;20084;-54
2023/06/26 09:27:56;;;;;;;6.18;1.30;;;;;;;29.85;34.08;101610.69;5000959;28;20027;-54
2023/06/26 09:30:21;;;;;;;9.10;1.40;;;;;;;29.99;34.45;101616.84;5002800;28;20038;-52
2023/06/26 09:32:47;;;;;;;7.30;1.33;;;;;;;29.83;32.55;101624.59;4998001;28;20032;-55
2023/06/26 09:35:13;;;;;;;4.43;1.42;;;;;;;29.85;33.22;101624.38;5001135;28;20113;-53
2023/06/26 09:37:38;;;;;;;2.30;1.30;;;;;;;30.12;33.54;101624.91;5002420;28;20552;-53
2023/06/26 09:40:04;;;;;;;3.13;1.17;;;;;;;30.19;32.64;101631.13;4999180;28;20081;-52
2023/06/26 09:42:31;;;;;;;3.65;1.48;;;;;;;30.34;33.32;101629.91;5006192;28;20087;-53
2023/06/26 09:44:56;;;;;;;8.70;1.45;;;;;;;30.40;31.52;101639.97;4997966;28;20034;-52
2023/06/26 09:47:22;;;;;;;6.03;1.35;;;;;;;30.32;31.65;101638.34;4996671;28;20045;-52
2023/06/26 09:49:47;;;;;;;8.10;1.30;;;;;;;30.19;32.41;101660.44;5002576;28;20113;-54
2023/06/26 09:52:17;;;;;;;3.55;0.95;;;;;;;30.08;31.72;101649.19;4992757;28;20031;-54
2023/06/26 09:54:44;;;;;;;6.57;1.17;;;;;;;30.21;31.14;101661.91;5003097;28;20041;-51
2023/06/26 09:57:16;;;;;;;4.23;1.10;;;;;;;30.25;32.41;101643.09;5003641;28;20029;-51
2023/06/26 09:59:42;;;;;;;4.53;1.60;;;;;;;29.92;31.75;101644.31;5000921;28;20293;-52
2023/06/26 10:02:07;;;;;;;5.30;1.30;;;;;;;30.03;31.94;101643.56;5000095;28;20022;-52
2023/06/26 10:04:34;;;;;;;1.55;0.90;;;;;;;30.43;32.42;101651.31;4998744;28;20137;-53
2023/06/26 10:07:04;;;;;;;2.78;1.00;;;;;;;30.43;30.55;101651.31;5001298;28;20037;-53
2023/06/26 10:09:31;;;;;;;2.25;1.00;;;;;;;30.58;30.18;101663.78;4998804;28;20026;-53
2023/06/26 10:12:01;;;;;;;4.53;1.17;;;;;;;30.43;28.99;101670.50;4999621;28;20414;-51
2023/06/26 10:14:30;;;;;;;2.03;1.30;;;;;;;30.42;30.26;101659.75;5002787;28;20036;-54
2023/06/26 10:17:01;;;;;;;4.97;1.00;;;;;;;30.51;28.96;101663.03;4995097;28;20034;-54
2023/06/26 10:19:27;;;;;;;5.28;1.30;;;;;;;30.63;28.06;101661.19;4994806;28;20038;-54
2023/06/26 10:21:54;;;;;;;3.58;1.23;;;;;;;30.71;28.96;101665.50;4998547;28;20045;-55
2023/06/26 10:24:22;;;;;;;4.68;1.10;;;;;;;30.87;28.20;101659.34;4990549;28;20050;-54
2023/06/26 10:26:58;;;;;;;2.30;0.98;;;;;;;30.85;28.23;101666.16;4999447;28;20036;-54
2023/06/26 10:29:25;;;;;;;6.30;1.25;;;;;;;31.05;28.09;101666.72;4995463;28;20054;-54
2023/06/26 10:31:55;;;;;;;1.90;1.08;;;;;;;30.81;28.73;101658.38;4999922;28;20427;-54
2023/06/26 10:34:21;;;;;;;3.80;0.93;;;;;;;30.75;30.06;101662.06;4998323;28;20544;-51
2023/06/26 10:36:47;;;;;;;2.95;1.35;;;;;;;30.99;29.21;101670.38;4997225;28;20464;-51
2023/06/26 10:39:13;;;;;;;3.35;1.10;;;;;;;30.84;28.68;101680.94;4991031;28;20034;-51
2023/06/26 10:41:42;;;;;;;4.10;1.05;;;;;;;30.49;29.57;101679.69;5001817;28;20029;-52
2023/06/26 10:44:10;;;;;;;4.97;1.40;;;;;;;30.81;29.21;101682.25;4998366;28;20426;-53
2023/06/26 10:46:53;;;;;;;4.78;1.05;;;;;;;30.90;28.67;101686.31;4996453;28;20022;-52
2023/06/26 10:49:29;;;;;;;3.78;0.82;;;;;;;31.02;27.48;101697.34;4997431;28;20460;-54
2023/06/26 10:51:57;;;;;;;1.70;0.80;;;;;;;31.02;27.67;101691.88;4996888;28;20103;-52
2023/06/26 10:54:23;;;;;;;3.17;1.10;;;;;;;31.20;26.82;101684.66;4990476;28;20038;-53
2023/06/26 10:56:50;;;;;;;4.18;1.13;;;;;;;31.26;28.55;101683.69;4999226;28;20372;-52
2023/06/26 10:59:21;;;;;;;5.07;1.35;;;;;;;31.06;28.89;101684.88;4996708;28;20034;-52
2023/06/26 11:01:55;;;;;;;3.17;1.15;;;;;;;31.07;28.71;101694.75;5013233;28;20030;-54
2023/06/26 11:04:40;;;;;;;4.50;1.05;;;;;;;31.21;28.09;101705.53;4992494;28;20030;-52
2023/06/26 11:07:25;;;;;;;2.05;1.17;;;;;;;31.12;28.49;101705.84;4995675;28;20030;-51
2023/06/26 11:09:58;;;;;;;2.10;0.88;;;;;;;30.71;27.26;101701.13;4996487;28;20046;-55
2023/06/26 11:12:41;;;;;;;2.97;1.17;;;;;;;30.71;28.72;101696.50;5000206;28;20089;-55
2023/06/26 11:15:12;;;;;;;2.75;0.98;;;;;;;30.87;26.94;101699.66;4997468;28;20038;-51
2023/06/26 11:17:39;;;;;;;2.03;1.08;;;;;;;30.62;26.28;101708.84;4992595;28;20019;-54
2023/06/26 11:20:13;;;;;;;3.33;1.23;;;;;;;30.58;27.26;101711.22;4999412;28;20038;-52
2023/06/26 11:22:42;;;;;;;2.47;1.02;;;;;;;30.58;26.15;101710.41;4994070;28;20038;-53